Rheinfelden, Switzerland
Current Conditions -  °F | °C
As of 3:00 PM on Thursday 23 Oct 2014 (Local Time) from LFSB Reporting Station
Scattered Clouds Scattered Clouds  
Wind Chill: 57°   Ceiling: Unl
Heat Index: 57°   Visibility: 6mi
Dew Point: 39°   Wind: 2mph
Humidity: 51%   Direction: NA
Pressure: 30.27"   Gusts: NA
Location:  47.56°N, 7.79°E
Report Text: LFSB 231300Z VRB02KT 9999 FEW036 SCT053 14/04 Q1025 NOSIG
Loading
Personal Weather Stations






























Interactive Weather Map
Tropical Storm Tracking
New forecast layout! Learn more

10-Day Weather Forecast

Advertisements
Track Severe Weather on mobile